sensor_id;sensor_type;location;lat;lon;timestamp;temperature;humidity
18575;DHT22;9417;16.484;102.872;2022-07-23T00:01:33;26.20;99.90
18575;DHT22;9417;16.484;102.872;2022-07-23T00:03:40;26.30;99.90
18575;DHT22;9417;16.484;102.872;2022-07-23T00:05:48;26.40;99.90
18575;DHT22;9417;16.484;102.872;2022-07-23T00:08:01;26.40;99.90
18575;DHT22;9417;16.484;102.872;2022-07-23T00:10:17;26.40;99.90
18575;DHT22;9417;16.484;102.872;2022-07-23T00:12:26;26.40;99.90
18575;DHT22;9417;16.484;102.872;2022-07-23T00:14:34;26.40;99.90
18575;DHT22;9417;16.484;102.872;2022-07-23T00:16:43;26.40;99.90
18575;DHT22;9417;16.484;102.872;2022-07-23T00:18:50;26.40;99.90
18575;DHT22;9417;16.484;102.872;2022-07-23T00:20:57;26.40;99.90
18575;DHT22;9417;16.484;102.872;2022-07-23T00:23:04;26.40;99.90
18575;DHT22;9417;16.484;102.872;2022-07-23T00:25:12;26.50;99.90
18575;DHT22;9417;16.484;102.872;2022-07-23T00:27:35;26.50;99.90
18575;DHT22;9417;16.484;102.872;2022-07-23T00:29:42;26.50;99.90
18575;DHT22;9417;16.484;102.872;2022-07-23T00:31:51;26.60;99.90
18575;DHT22;9417;16.484;102.872;2022-07-23T00:33:59;26.60;99.90
18575;DHT22;9417;16.484;102.872;2022-07-23T00:36:07;26.60;99.90
18575;DHT22;9417;16.484;102.872;2022-07-23T00:38:14;26.70;99.90
18575;DHT22;9417;16.484;102.872;2022-07-23T00:40:22;26.80;99.90
18575;DHT22;9417;16.484;102.872;2022-07-23T00:42:31;26.90;99.90
18575;DHT22;9417;16.484;102.872;2022-07-23T00:44:39;26.90;99.90
18575;DHT22;9417;16.484;102.872;2022-07-23T00:46:52;26.90;99.90
18575;DHT22;9417;16.484;102.872;2022-07-23T00:49:00;26.90;99.90
18575;DHT22;9417;16.484;102.872;2022-07-23T00:51:07;26.90;99.90
18575;DHT22;9417;16.484;102.872;2022-07-23T00:53:15;26.90;99.90
18575;DHT22;9417;16.484;102.872;2022-07-23T00:55:23;26.90;99.90
18575;DHT22;9417;16.484;102.872;2022-07-23T00:57:30;26.90;99.90
18575;DHT22;9417;16.484;102.872;2022-07-23T00:59:39;27.00;99.90
18575;DHT22;9417;16.484;102.872;2022-07-23T01:01:46;27.10;99.90
18575;DHT22;9417;16.484;102.872;2022-07-23T01:03:56;27.10;99.90
18575;DHT22;9417;16.484;102.872;2022-07-23T01:06:03;27.20;99.90
18575;DHT22;9417;16.484;102.872;2022-07-23T01:08:11;27.20;99.90
18575;DHT22;9417;16.484;102.872;2022-07-23T01:10:19;27.20;99.90
18575;DHT22;9417;16.484;102.872;2022-07-23T01:12:38;27.20;99.90
18575;DHT22;9417;16.484;102.872;2022-07-23T01:14:46;27.10;99.90
18575;DHT22;9417;16.484;102.872;2022-07-23T01:17:01;27.10;99.90
18575;DHT22;9417;16.484;102.872;2022-07-23T01:19:10;27.10;99.90
18575;DHT22;9417;16.484;102.872;2022-07-23T01:21:19;27.10;99.90
18575;DHT22;9417;16.484;102.872;2022-07-23T01:23:28;27.20;99.90
18575;DHT22;9417;16.484;102.872;2022-07-23T01:25:36;27.20;99.90
18575;DHT22;9417;16.484;102.872;2022-07-23T01:27:43;27.30;99.90
18575;DHT22;9417;16.484;102.872;2022-07-23T01:29:51;27.30;99.90
18575;DHT22;9417;16.484;102.872;2022-07-23T01:31:58;27.40;99.70
18575;DHT22;9417;16.484;102.872;2022-07-23T01:34:06;27.50;99.60
18575;DHT22;9417;16.484;102.872;2022-07-23T01:36:13;27.50;98.60
18575;DHT22;9417;16.484;102.872;2022-07-23T01:38:21;27.50;97.70
18575;DHT22;9417;16.484;102.872;2022-07-23T01:40:30;27.50;97.60
18575;DHT22;9417;16.484;102.872;2022-07-23T01:42:37;27.70;98.00
18575;DHT22;9417;16.484;102.872;2022-07-23T01:44:47;27.70;97.90
18575;DHT22;9417;16.484;102.872;2022-07-23T01:46:57;27.80;97.80
18575;DHT22;9417;16.484;102.872;2022-07-23T01:49:04;27.90;97.70
18575;DHT22;9417;16.484;102.872;2022-07-23T01:51:24;27.90;95.90
18575;DHT22;9417;16.484;102.872;2022-07-23T01:53:43;28.10;96.10
18575;DHT22;9417;16.484;102.872;2022-07-23T01:55:52;28.10;95.30
18575;DHT22;9417;16.484;102.872;2022-07-23T01:57:59;28.30;95.40
18575;DHT22;9417;16.484;102.872;2022-07-23T02:00:08;28.40;94.80
18575;DHT22;9417;16.484;102.872;2022-07-23T02:02:16;28.50;94.20
18575;DHT22;9417;16.484;102.872;2022-07-23T02:04:24;28.60;93.50
18575;DHT22;9417;16.484;102.872;2022-07-23T02:06:32;28.60;93.30
18575;DHT22;9417;16.484;102.872;2022-07-23T02:08:40;28.70;92.70
18575;DHT22;9417;16.484;102.872;2022-07-23T02:10:47;28.70;92.50
18575;DHT22;9417;16.484;102.872;2022-07-23T02:12:57;28.70;92.00
18575;DHT22;9417;16.484;102.872;2022-07-23T02:15:06;28.80;91.70
18575;DHT22;9417;16.484;102.872;2022-07-23T02:17:16;28.70;91.80
18575;DHT22;9417;16.484;102.872;2022-07-23T02:19:23;28.80;90.50
18575;DHT22;9417;16.484;102.872;2022-07-23T02:21:31;28.80;90.60
18575;DHT22;9417;16.484;102.872;2022-07-23T02:23:38;28.80;90.80
18575;DHT22;9417;16.484;102.872;2022-07-23T02:25:46;28.80;90.70
18575;DHT22;9417;16.484;102.872;2022-07-23T02:27:53;28.80;90.50
18575;DHT22;9417;16.484;102.872;2022-07-23T02:30:03;28.90;90.30
18575;DHT22;9417;16.484;102.872;2022-07-23T02:32:11;28.90;90.20
18575;DHT22;9417;16.484;102.872;2022-07-23T02:34:20;29.00;90.30
18575;DHT22;9417;16.484;102.872;2022-07-23T02:36:28;29.00;89.60
18575;DHT22;9417;16.484;102.872;2022-07-23T02:38:36;29.00;88.60
18575;DHT22;9417;16.484;102.872;2022-07-23T02:40:43;29.00;88.70
18575;DHT22;9417;16.484;102.872;2022-07-23T02:42:50;28.90;88.50
18575;DHT22;9417;16.484;102.872;2022-07-23T02:44:57;28.80;88.10
18575;DHT22;9417;16.484;102.872;2022-07-23T02:47:07;28.70;88.30
18575;DHT22;9417;16.484;102.872;2022-07-23T02:49:14;28.70;89.10
18575;DHT22;9417;16.484;102.872;2022-07-23T02:51:23;28.90;88.50
18575;DHT22;9417;16.484;102.872;2022-07-23T02:53:35;29.10;87.50
18575;DHT22;9417;16.484;102.872;2022-07-23T02:55:42;29.30;87.10
18575;DHT22;9417;16.484;102.872;2022-07-23T02:57:49;29.30;87.20
18575;DHT22;9417;16.484;102.872;2022-07-23T02:59:56;29.40;86.30
18575;DHT22;9417;16.484;102.872;2022-07-23T03:02:06;29.60;86.00
18575;DHT22;9417;16.484;102.872;2022-07-23T03:04:14;29.80;85.60
18575;DHT22;9417;16.484;102.872;2022-07-23T03:06:21;29.90;84.40
18575;DHT22;9417;16.484;102.872;2022-07-23T03:08:29;29.80;84.40
18575;DHT22;9417;16.484;102.872;2022-07-23T03:10:37;29.70;84.70
18575;DHT22;9417;16.484;102.872;2022-07-23T03:12:44;29.70;85.30
18575;DHT22;9417;16.484;102.872;2022-07-23T03:14:53;29.70;85.80
18575;DHT22;9417;16.484;102.872;2022-07-23T03:17:00;29.80;85.00
18575;DHT22;9417;16.484;102.872;2022-07-23T03:19:09;29.90;84.30
18575;DHT22;9417;16.484;102.872;2022-07-23T03:21:17;29.90;81.20
18575;DHT22;9417;16.484;102.872;2022-07-23T03:23:25;29.80;81.80
18575;DHT22;9417;16.484;102.872;2022-07-23T03:25:33;29.60;83.00
18575;DHT22;9417;16.484;102.872;2022-07-23T03:27:40;29.60;83.80
18575;DHT22;9417;16.484;102.872;2022-07-23T03:29:47;29.50;83.90
18575;DHT22;9417;16.484;102.872;2022-07-23T03:31:54;29.40;84.70
18575;DHT22;9417;16.484;102.872;2022-07-23T03:34:02;29.40;84.90
18575;DHT22;9417;16.484;102.872;2022-07-23T03:36:11;29.50;85.00
18575;DHT22;9417;16.484;102.872;2022-07-23T03:38:21;29.50;84.70
18575;DHT22;9417;16.484;102.872;2022-07-23T03:40:29;29.40;84.80
18575;DHT22;9417;16.484;102.872;2022-07-23T03:42:37;29.40;84.40
18575;DHT22;9417;16.484;102.872;2022-07-23T03:44:47;29.30;85.10
18575;DHT22;9417;16.484;102.872;2022-07-23T03:46:54;29.20;85.40
18575;DHT22;9417;16.484;102.872;2022-07-23T03:49:01;29.10;85.80
18575;DHT22;9417;16.484;102.872;2022-07-23T03:51:12;29.10;85.90
18575;DHT22;9417;16.484;102.872;2022-07-23T03:53:19;29.00;86.30
18575;DHT22;9417;16.484;102.872;2022-07-23T03:55:27;29.00;86.40
18575;DHT22;9417;16.484;102.872;2022-07-23T03:57:34;29.00;86.60
18575;DHT22;9417;16.484;102.872;2022-07-23T03:59:41;29.00;86.70
18575;DHT22;9417;16.484;102.872;2022-07-23T04:01:48;29.00;86.30
18575;DHT22;9417;16.484;102.872;2022-07-23T04:03:55;29.10;86.30
18575;DHT22;9417;16.484;102.872;2022-07-23T04:06:03;29.10;86.50
18575;DHT22;9417;16.484;102.872;2022-07-23T04:08:14;29.10;86.80
18575;DHT22;9417;16.484;102.872;2022-07-23T04:10:26;29.20;86.90
18575;DHT22;9417;16.484;102.872;2022-07-23T04:12:33;29.20;86.60
18575;DHT22;9417;16.484;102.872;2022-07-23T04:14:41;29.30;85.50
18575;DHT22;9417;16.484;102.872;2022-07-23T04:16:48;29.30;84.40
18575;DHT22;9417;16.484;102.872;2022-07-23T04:18:56;29.40;84.70
18575;DHT22;9417;16.484;102.872;2022-07-23T04:21:09;29.40;85.00
18575;DHT22;9417;16.484;102.872;2022-07-23T04:23:18;29.50;85.50
18575;DHT22;9417;16.484;102.872;2022-07-23T04:25:30;29.60;84.10
18575;DHT22;9417;16.484;102.872;2022-07-23T04:27:37;29.60;84.50
18575;DHT22;9417;16.484;102.872;2022-07-23T04:29:44;29.60;84.10
18575;DHT22;9417;16.484;102.872;2022-07-23T04:31:51;29.60;83.60
18575;DHT22;9417;16.484;102.872;2022-07-23T04:33:59;29.50;83.90
18575;DHT22;9417;16.484;102.872;2022-07-23T04:36:07;29.50;84.80
18575;DHT22;9417;16.484;102.872;2022-07-23T04:38:14;29.40;85.00
18575;DHT22;9417;16.484;102.872;2022-07-23T04:40:26;29.40;84.30
18575;DHT22;9417;16.484;102.872;2022-07-23T04:42:33;29.40;85.30
18575;DHT22;9417;16.484;102.872;2022-07-23T04:44:40;29.50;84.60
18575;DHT22;9417;16.484;102.872;2022-07-23T04:46:49;29.60;83.90
18575;DHT22;9417;16.484;102.872;2022-07-23T04:48:56;29.70;83.70
18575;DHT22;9417;16.484;102.872;2022-07-23T04:51:05;29.90;82.60
18575;DHT22;9417;16.484;102.872;2022-07-23T04:53:12;30.00;83.00
18575;DHT22;9417;16.484;102.872;2022-07-23T04:55:19;30.00;81.50
18575;DHT22;9417;16.484;102.872;2022-07-23T04:57:28;29.90;81.70
18575;DHT22;9417;16.484;102.872;2022-07-23T04:59:35;29.90;82.00
18575;DHT22;9417;16.484;102.872;2022-07-23T05:01:44;29.90;82.20
18575;DHT22;9417;16.484;102.872;2022-07-23T05:03:51;29.90;81.00
18575;DHT22;9417;16.484;102.872;2022-07-23T05:06:02;30.00;82.00
18575;DHT22;9417;16.484;102.872;2022-07-23T05:08:10;30.00;80.90
18575;DHT22;9417;16.484;102.872;2022-07-23T05:10:21;30.10;80.80
18575;DHT22;9417;16.484;102.872;2022-07-23T05:12:31;30.30;81.70
18575;DHT22;9417;16.484;102.872;2022-07-23T05:14:39;30.50;81.20
18575;DHT22;9417;16.484;102.872;2022-07-23T05:16:47;30.50;80.60
18575;DHT22;9417;16.484;102.872;2022-07-23T05:18:58;30.40;79.30
18575;DHT22;9417;16.484;102.872;2022-07-23T05:21:08;30.30;78.30
18575;DHT22;9417;16.484;102.872;2022-07-23T05:23:16;30.30;79.70
18575;DHT22;9417;16.484;102.872;2022-07-23T05:25:25;30.30;80.60
18575;DHT22;9417;16.484;102.872;2022-07-23T05:27:34;30.40;81.20
18575;DHT22;9417;16.484;102.872;2022-07-23T05:29:42;30.40;81.30
18575;DHT22;9417;16.484;102.872;2022-07-23T05:31:49;30.50;81.40
18575;DHT22;9417;16.484;102.872;2022-07-23T05:33:58;30.60;81.20
18575;DHT22;9417;16.484;102.872;2022-07-23T05:36:05;30.70;80.40
18575;DHT22;9417;16.484;102.872;2022-07-23T05:38:20;30.80;80.20
18575;DHT22;9417;16.484;102.872;2022-07-23T05:40:28;30.80;79.50
18575;DHT22;9417;16.484;102.872;2022-07-23T05:42:39;30.90;78.80
18575;DHT22;9417;16.484;102.872;2022-07-23T05:44:47;30.90;78.50
18575;DHT22;9417;16.484;102.872;2022-07-23T05:46:54;30.90;78.20
18575;DHT22;9417;16.484;102.872;2022-07-23T05:49:04;31.00;76.80
18575;DHT22;9417;16.484;102.872;2022-07-23T05:51:31;31.20;75.90
18575;DHT22;9417;16.484;102.872;2022-07-23T05:53:38;31.30;75.50
18575;DHT22;9417;16.484;102.872;2022-07-23T05:55:50;31.40;73.90
18575;DHT22;9417;16.484;102.872;2022-07-23T05:57:59;31.50;74.00
18575;DHT22;9417;16.484;102.872;2022-07-23T06:00:09;31.70;74.10
18575;DHT22;9417;16.484;102.872;2022-07-23T06:02:18;31.80;73.30
18575;DHT22;9417;16.484;102.872;2022-07-23T06:04:25;31.90;72.90
18575;DHT22;9417;16.484;102.872;2022-07-23T06:06:50;32.00;71.90
18575;DHT22;9417;16.484;102.872;2022-07-23T06:08:57;32.00;69.20
18575;DHT22;9417;16.484;102.872;2022-07-23T06:11:05;32.10;70.70
18575;DHT22;9417;16.484;102.872;2022-07-23T06:13:14;32.20;70.60
18575;DHT22;9417;16.484;102.872;2022-07-23T06:15:22;32.30;70.70
18575;DHT22;9417;16.484;102.872;2022-07-23T06:17:30;32.30;70.50
18575;DHT22;9417;16.484;102.872;2022-07-23T06:19:38;32.40;69.50
18575;DHT22;9417;16.484;102.872;2022-07-23T06:21:45;32.40;68.90
18575;DHT22;9417;16.484;102.872;2022-07-23T06:23:53;32.40;69.30
18575;DHT22;9417;16.484;102.872;2022-07-23T06:26:00;32.40;68.30
18575;DHT22;9417;16.484;102.872;2022-07-23T06:28:08;32.50;68.70
18575;DHT22;9417;16.484;102.872;2022-07-23T06:30:19;32.50;68.40
18575;DHT22;9417;16.484;102.872;2022-07-23T06:32:27;32.60;67.70
18575;DHT22;9417;16.484;102.872;2022-07-23T06:34:35;32.60;67.80
18575;DHT22;9417;16.484;102.872;2022-07-23T06:36:47;32.70;67.20
18575;DHT22;9417;16.484;102.872;2022-07-23T06:38:54;32.70;66.40
18575;DHT22;9417;16.484;102.872;2022-07-23T06:41:02;32.70;66.70
18575;DHT22;9417;16.484;102.872;2022-07-23T06:43:09;32.70;66.80
18575;DHT22;9417;16.484;102.872;2022-07-23T06:45:22;32.70;66.00
18575;DHT22;9417;16.484;102.872;2022-07-23T06:47:29;32.80;66.40
18575;DHT22;9417;16.484;102.872;2022-07-23T06:49:37;32.90;66.00
18575;DHT22;9417;16.484;102.872;2022-07-23T06:51:46;32.90;66.30
18575;DHT22;9417;16.484;102.872;2022-07-23T06:53:53;32.90;66.20
18575;DHT22;9417;16.484;102.872;2022-07-23T06:56:02;33.00;68.20
18575;DHT22;9417;16.484;102.872;2022-07-23T06:58:09;33.10;68.40
18575;DHT22;9417;16.484;102.872;2022-07-23T07:00:16;33.20;68.10
18575;DHT22;9417;16.484;102.872;2022-07-23T07:02:25;33.30;68.20
18575;DHT22;9417;16.484;102.872;2022-07-23T07:04:33;33.30;67.70
18575;DHT22;9417;16.484;102.872;2022-07-23T07:06:40;33.30;67.30
18575;DHT22;9417;16.484;102.872;2022-07-23T07:08:47;33.10;66.20
18575;DHT22;9417;16.484;102.872;2022-07-23T07:10:54;32.90;66.30
18575;DHT22;9417;16.484;102.872;2022-07-23T07:13:01;32.70;67.40
18575;DHT22;9417;16.484;102.872;2022-07-23T07:15:09;32.60;68.40
18575;DHT22;9417;16.484;102.872;2022-07-23T07:17:16;32.50;68.80
18575;DHT22;9417;16.484;102.872;2022-07-23T07:19:25;32.40;68.80
18575;DHT22;9417;16.484;102.872;2022-07-23T07:21:33;32.40;69.00
18575;DHT22;9417;16.484;102.872;2022-07-23T07:23:40;32.40;68.90
18575;DHT22;9417;16.484;102.872;2022-07-23T07:25:47;32.40;68.70
18575;DHT22;9417;16.484;102.872;2022-07-23T07:27:55;32.30;69.40
18575;DHT22;9417;16.484;102.872;2022-07-23T07:30:02;32.10;70.20
18575;DHT22;9417;16.484;102.872;2022-07-23T07:32:09;31.90;70.60
18575;DHT22;9417;16.484;102.872;2022-07-23T07:34:38;31.80;70.90
18575;DHT22;9417;16.484;102.872;2022-07-23T07:36:45;31.70;71.20
18575;DHT22;9417;16.484;102.872;2022-07-23T07:38:52;31.60;71.30
18575;DHT22;9417;16.484;102.872;2022-07-23T07:40:59;31.50;70.90
18575;DHT22;9417;16.484;102.872;2022-07-23T07:43:07;31.50;70.40
18575;DHT22;9417;16.484;102.872;2022-07-23T07:45:14;31.60;69.50
18575;DHT22;9417;16.484;102.872;2022-07-23T07:47:21;31.80;69.40
18575;DHT22;9417;16.484;102.872;2022-07-23T07:49:29;31.90;69.20
18575;DHT22;9417;16.484;102.872;2022-07-23T07:51:58;32.10;69.20
18575;DHT22;9417;16.484;102.872;2022-07-23T07:54:06;32.20;69.70
18575;DHT22;9417;16.484;102.872;2022-07-23T07:56:13;32.40;69.70
18575;DHT22;9417;16.484;102.872;2022-07-23T07:58:21;32.50;68.40
18575;DHT22;9417;16.484;102.872;2022-07-23T08:00:28;32.60;66.40
18575;DHT22;9417;16.484;102.872;2022-07-23T08:02:44;32.70;65.90
18575;DHT22;9417;16.484;102.872;2022-07-23T08:04:52;32.70;64.30
18575;DHT22;9417;16.484;102.872;2022-07-23T08:07:04;32.70;64.60
18575;DHT22;9417;16.484;102.872;2022-07-23T08:09:11;32.70;64.50
18575;DHT22;9417;16.484;102.872;2022-07-23T08:11:18;32.80;65.10
18575;DHT22;9417;16.484;102.872;2022-07-23T08:13:25;32.90;64.60
18575;DHT22;9417;16.484;102.872;2022-07-23T08:15:33;33.00;64.60
18575;DHT22;9417;16.484;102.872;2022-07-23T08:17:41;33.00;64.50
18575;DHT22;9417;16.484;102.872;2022-07-23T08:19:48;33.10;64.60
18575;DHT22;9417;16.484;102.872;2022-07-23T08:21:56;33.10;64.20
18575;DHT22;9417;16.484;102.872;2022-07-23T08:24:05;33.10;64.40
18575;DHT22;9417;16.484;102.872;2022-07-23T08:26:12;33.20;64.60
18575;DHT22;9417;16.484;102.872;2022-07-23T08:28:19;33.20;64.80
18575;DHT22;9417;16.484;102.872;2022-07-23T08:30:27;33.10;64.70
18575;DHT22;9417;16.484;102.872;2022-07-23T08:32:48;33.10;64.80
18575;DHT22;9417;16.484;102.872;2022-07-23T08:34:56;32.90;64.60
18575;DHT22;9417;16.484;102.872;2022-07-23T08:37:03;32.80;65.40
18575;DHT22;9417;16.484;102.872;2022-07-23T08:39:12;32.80;65.00
18575;DHT22;9417;16.484;102.872;2022-07-23T08:41:20;32.70;65.20
18575;DHT22;9417;16.484;102.872;2022-07-23T08:43:28;32.60;65.70
18575;DHT22;9417;16.484;102.872;2022-07-23T08:45:38;32.40;66.00
18575;DHT22;9417;16.484;102.872;2022-07-23T08:47:46;32.30;66.40
18575;DHT22;9417;16.484;102.872;2022-07-23T08:49:57;32.30;66.50
18575;DHT22;9417;16.484;102.872;2022-07-23T08:52:07;32.40;66.50
18575;DHT22;9417;16.484;102.872;2022-07-23T08:54:16;32.40;66.40
18575;DHT22;9417;16.484;102.872;2022-07-23T08:56:24;32.40;66.50
18575;DHT22;9417;16.484;102.872;2022-07-23T08:58:31;32.50;66.80
18575;DHT22;9417;16.484;102.872;2022-07-23T09:00:39;32.50;66.80
18575;DHT22;9417;16.484;102.872;2022-07-23T09:02:46;32.60;66.90
18575;DHT22;9417;16.484;102.872;2022-07-23T09:04:54;32.50;67.10
18575;DHT22;9417;16.484;102.872;2022-07-23T09:07:02;32.50;67.40
18575;DHT22;9417;16.484;102.872;2022-07-23T09:09:19;32.50;67.50
18575;DHT22;9417;16.484;102.872;2022-07-23T09:11:27;32.50;67.60
18575;DHT22;9417;16.484;102.872;2022-07-23T09:13:37;32.40;67.70
18575;DHT22;9417;16.484;102.872;2022-07-23T09:15:49;32.40;67.80
18575;DHT22;9417;16.484;102.872;2022-07-23T09:17:57;32.40;68.00
18575;DHT22;9417;16.484;102.872;2022-07-23T09:20:09;32.30;68.10
18575;DHT22;9417;16.484;102.872;2022-07-23T09:22:18;32.30;68.20
18575;DHT22;9417;16.484;102.872;2022-07-23T09:24:32;32.20;68.40
18575;DHT22;9417;16.484;102.872;2022-07-23T09:26:40;32.10;68.50
18575;DHT22;9417;16.484;102.872;2022-07-23T09:28:51;32.00;68.50
18575;DHT22;9417;16.484;102.872;2022-07-23T09:30:58;32.00;68.40
18575;DHT22;9417;16.484;102.872;2022-07-23T09:33:11;31.90;68.50
18575;DHT22;9417;16.484;102.872;2022-07-23T09:35:18;31.80;69.30
18575;DHT22;9417;16.484;102.872;2022-07-23T09:37:26;31.80;69.60
18575;DHT22;9417;16.484;102.872;2022-07-23T09:39:34;31.70;70.00
18575;DHT22;9417;16.484;102.872;2022-07-23T09:41:43;31.60;69.90
18575;DHT22;9417;16.484;102.872;2022-07-23T09:43:55;31.60;70.20
18575;DHT22;9417;16.484;102.872;2022-07-23T09:46:20;31.50;70.80
18575;DHT22;9417;16.484;102.872;2022-07-23T09:48:28;31.60;71.00
18575;DHT22;9417;16.484;102.872;2022-07-23T09:50:35;31.50;71.30
18575;DHT22;9417;16.484;102.872;2022-07-23T09:52:44;31.40;71.80
18575;DHT22;9417;16.484;102.872;2022-07-23T09:54:58;31.40;72.20
18575;DHT22;9417;16.484;102.872;2022-07-23T09:57:07;31.30;72.40
18575;DHT22;9417;16.484;102.872;2022-07-23T09:59:20;31.30;72.70
18575;DHT22;9417;16.484;102.872;2022-07-23T10:01:30;31.30;72.80
18575;DHT22;9417;16.484;102.872;2022-07-23T10:03:38;31.30;73.00
18575;DHT22;9417;16.484;102.872;2022-07-23T10:05:58;31.20;73.10
18575;DHT22;9417;16.484;102.872;2022-07-23T10:08:18;31.20;73.30
18575;DHT22;9417;16.484;102.872;2022-07-23T10:10:40;31.20;73.30
18575;DHT22;9417;16.484;102.872;2022-07-23T10:12:50;31.20;73.10
18575;DHT22;9417;16.484;102.872;2022-07-23T10:15:25;31.20;73.30
18575;DHT22;9417;16.484;102.872;2022-07-23T10:17:32;31.10;73.40
18575;DHT22;9417;16.484;102.872;2022-07-23T10:19:41;31.10;73.30
18575;DHT22;9417;16.484;102.872;2022-07-23T10:21:52;31.10;73.80
18575;DHT22;9417;16.484;102.872;2022-07-23T10:24:18;31.00;74.80
18575;DHT22;9417;16.484;102.872;2022-07-23T10:26:36;31.00;75.50
18575;DHT22;9417;16.484;102.872;2022-07-23T10:29:02;31.00;75.30
18575;DHT22;9417;16.484;102.872;2022-07-23T10:31:25;31.00;74.60
18575;DHT22;9417;16.484;102.872;2022-07-23T10:33:59;31.00;74.40
18575;DHT22;9417;16.484;102.872;2022-07-23T10:36:15;31.00;74.80
18575;DHT22;9417;16.484;102.872;2022-07-23T10:38:27;31.00;75.30
18575;DHT22;9417;16.484;102.872;2022-07-23T10:40:34;31.00;75.70
18575;DHT22;9417;16.484;102.872;2022-07-23T10:42:43;31.00;75.80
18575;DHT22;9417;16.484;102.872;2022-07-23T10:44:51;31.10;75.90
18575;DHT22;9417;16.484;102.872;2022-07-23T10:46:59;31.10;75.90
18575;DHT22;9417;16.484;102.872;2022-07-23T10:49:24;31.00;75.60
18575;DHT22;9417;16.484;102.872;2022-07-23T10:51:33;31.00;75.50
18575;DHT22;9417;16.484;102.872;2022-07-23T10:54:00;31.00;75.90
18575;DHT22;9417;16.484;102.872;2022-07-23T10:56:08;30.90;76.40
18575;DHT22;9417;16.484;102.872;2022-07-23T10:58:46;30.90;76.80
18575;DHT22;9417;16.484;102.872;2022-07-23T11:00:53;30.90;77.40
18575;DHT22;9417;16.484;102.872;2022-07-23T11:03:02;30.80;77.40
18575;DHT22;9417;16.484;102.872;2022-07-23T11:05:13;30.80;77.50
18575;DHT22;9417;16.484;102.872;2022-07-23T11:07:21;30.70;77.20
18575;DHT22;9417;16.484;102.872;2022-07-23T11:09:30;30.70;77.00
18575;DHT22;9417;16.484;102.872;2022-07-23T11:11:37;30.60;76.80
18575;DHT22;9417;16.484;102.872;2022-07-23T11:13:51;30.60;76.80
18575;DHT22;9417;16.484;102.872;2022-07-23T11:16:07;30.50;77.00
18575;DHT22;9417;16.484;102.872;2022-07-23T11:18:15;30.50;77.00
18575;DHT22;9417;16.484;102.872;2022-07-23T11:20:24;30.50;77.20
18575;DHT22;9417;16.484;102.872;2022-07-23T11:22:35;30.50;77.40
18575;DHT22;9417;16.484;102.872;2022-07-23T11:24:51;30.50;77.70
18575;DHT22;9417;16.484;102.872;2022-07-23T11:27:03;30.50;78.00
18575;DHT22;9417;16.484;102.872;2022-07-23T11:29:45;30.40;78.20
18575;DHT22;9417;16.484;102.872;2022-07-23T11:31:53;30.40;78.40
18575;DHT22;9417;16.484;102.872;2022-07-23T11:34:30;30.40;78.70
18575;DHT22;9417;16.484;102.872;2022-07-23T11:36:50;30.30;79.00
18575;DHT22;9417;16.484;102.872;2022-07-23T11:38:57;30.30;79.30
18575;DHT22;9417;16.484;102.872;2022-07-23T11:41:07;30.20;79.60
18575;DHT22;9417;16.484;102.872;2022-07-23T11:43:15;30.20;80.00
18575;DHT22;9417;16.484;102.872;2022-07-23T11:45:25;30.20;80.20
18575;DHT22;9417;16.484;102.872;2022-07-23T11:47:33;30.10;80.30
18575;DHT22;9417;16.484;102.872;2022-07-23T11:49:52;30.10;80.90
18575;DHT22;9417;16.484;102.872;2022-07-23T11:52:04;30.10;81.40
18575;DHT22;9417;16.484;102.872;2022-07-23T11:54:11;30.00;81.20
18575;DHT22;9417;16.484;102.872;2022-07-23T11:56:19;30.00;81.50
18575;DHT22;9417;16.484;102.872;2022-07-23T11:58:25;29.90;81.60
18575;DHT22;9417;16.484;102.872;2022-07-23T12:00:35;29.90;81.70
18575;DHT22;9417;16.484;102.872;2022-07-23T12:02:44;29.90;82.10
18575;DHT22;9417;16.484;102.872;2022-07-23T12:04:53;29.80;82.10
18575;DHT22;9417;16.484;102.872;2022-07-23T12:07:00;29.80;82.30
18575;DHT22;9417;16.484;102.872;2022-07-23T12:09:08;29.80;82.60
18575;DHT22;9417;16.484;102.872;2022-07-23T12:11:17;29.80;82.80
18575;DHT22;9417;16.484;102.872;2022-07-23T12:13:24;29.80;83.20
18575;DHT22;9417;16.484;102.872;2022-07-23T12:15:34;29.70;83.40
18575;DHT22;9417;16.484;102.872;2022-07-23T12:17:44;29.70;83.40
18575;DHT22;9417;16.484;102.872;2022-07-23T12:19:55;29.70;83.40
18575;DHT22;9417;16.484;102.872;2022-07-23T12:22:02;29.70;83.30
18575;DHT22;9417;16.484;102.872;2022-07-23T12:24:10;29.70;83.50
18575;DHT22;9417;16.484;102.872;2022-07-23T12:26:18;29.70;84.00
18575;DHT22;9417;16.484;102.872;2022-07-23T12:28:30;29.60;84.10
18575;DHT22;9417;16.484;102.872;2022-07-23T12:30:41;29.60;84.20
18575;DHT22;9417;16.484;102.872;2022-07-23T12:32:50;29.60;84.30
18575;DHT22;9417;16.484;102.872;2022-07-23T12:35:05;29.60;84.50
18575;DHT22;9417;16.484;102.872;2022-07-23T12:37:27;29.60;84.60
18575;DHT22;9417;16.484;102.872;2022-07-23T12:39:35;29.60;85.10
18575;DHT22;9417;16.484;102.872;2022-07-23T12:41:52;29.50;85.20
18575;DHT22;9417;16.484;102.872;2022-07-23T12:44:14;29.50;85.50
18575;DHT22;9417;16.484;102.872;2022-07-23T12:46:23;29.40;85.10
18575;DHT22;9417;16.484;102.872;2022-07-23T12:48:32;29.40;84.90
18575;DHT22;9417;16.484;102.872;2022-07-23T12:50:49;29.40;84.40
18575;DHT22;9417;16.484;102.872;2022-07-23T12:53:06;29.40;84.00
18575;DHT22;9417;16.484;102.872;2022-07-23T12:55:28;29.40;83.80
18575;DHT22;9417;16.484;102.872;2022-07-23T12:58:03;29.30;83.90
18575;DHT22;9417;16.484;102.872;2022-07-23T13:00:12;29.30;86.00
18575;DHT22;9417;16.484;102.872;2022-07-23T13:02:21;29.20;86.30
18575;DHT22;9417;16.484;102.872;2022-07-23T13:04:28;29.20;86.40
18575;DHT22;9417;16.484;102.872;2022-07-23T13:06:38;29.20;86.80
18575;DHT22;9417;16.484;102.872;2022-07-23T13:08:45;29.10;86.70
18575;DHT22;9417;16.484;102.872;2022-07-23T13:10:52;29.10;86.30
18575;DHT22;9417;16.484;102.872;2022-07-23T13:13:01;29.10;86.30
18575;DHT22;9417;16.484;102.872;2022-07-23T13:15:09;29.20;86.10
18575;DHT22;9417;16.484;102.872;2022-07-23T13:17:16;29.10;85.10
18575;DHT22;9417;16.484;102.872;2022-07-23T13:19:26;29.10;85.90
18575;DHT22;9417;16.484;102.872;2022-07-23T13:21:34;29.00;86.30
18575;DHT22;9417;16.484;102.872;2022-07-23T13:23:41;29.00;86.50
18575;DHT22;9417;16.484;102.872;2022-07-23T13:25:49;29.00;86.60
18575;DHT22;9417;16.484;102.872;2022-07-23T13:27:57;28.90;86.50